Time,TemperatureF,DewpointF,PressureIn,WindDirection,WindDirectionDegrees,WindSpeedMPH,WindSpeedGustMPH,Humidity,HourlyPrecipIn,Conditions,Clouds,dailyrainin,SoftwareType,DateUTC
2013-01-13 00:04:00,13.1,0.0,23.71,SSW,193,0.0,0.0,55,0.00,,CLR,0.00,VWS V14.01,2013-01-13 07:04:00,
2013-01-13 00:13:00,13.1,0.0,23.71,SSW,193,0.0,0.0,55,0.00,,CLR,0.00,VWS V14.01,2013-01-13 07:13:00,
2013-01-13 00:46:00,12.7,-0.4,23.71,SSW,193,0.0,0.0,55,0.00,,CLR,0.00,VWS V14.01,2013-01-13 07:46:00,
2013-01-13 02:36:00,11.5,-1.5,23.71,SSW,193,0.0,0.0,55,0.00,,CLR,0.00,VWS V14.01,2013-01-13 09:36:00,
2013-01-13 02:41:00,11.3,-1.7,23.71,SSW,193,0.0,0.0,55,0.00,,CLR,0.00,VWS V14.01,2013-01-13 09:41:00,
2013-01-13 02:46:00,11.1,-1.9,23.71,SSW,193,0.0,0.0,55,0.00,,CLR,0.00,VWS V14.01,2013-01-13 09:46:00,
2013-01-13 02:51:00,11.3,-1.7,23.71,SSW,193,0.0,0.0,55,0.00,,CLR,0.00,VWS V14.01,2013-01-13 09:51:00,
2013-01-13 02:56:00,11.3,-1.7,23.71,SSW,193,0.0,0.0,55,0.00,,CLR,0.00,VWS V14.01,2013-01-13 09:56:00,
2013-01-13 03:01:00,11.1,-1.9,23.71,SSW,193,0.0,0.0,55,0.00,,CLR,0.00,VWS V14.01,2013-01-13 10:01:00,
2013-01-13 03:06:00,11.1,-1.9,23.71,SSW,193,0.0,0.0,55,0.00,,CLR,0.00,VWS V14.01,2013-01-13 10:06:00,
2013-01-13 03:11:00,11.1,-1.9,23.71,SSW,193,0.0,0.0,55,0.00,,CLR,0.00,VWS V14.01,2013-01-13 10:11:00,
2013-01-13 03:16:00,10.9,-2.0,23.71,SSW,193,0.0,0.0,55,0.00,,CLR,0.00,VWS V14.01,2013-01-13 10:16:00,
2013-01-13 03:21:00,10.8,-2.2,23.71,SSW,193,0.0,0.0,55,0.00,,CLR,0.00,VWS V14.01,2013-01-13 10:21:00,
2013-01-13 03:26:00,10.4,-2.6,23.71,SSW,193,0.0,0.0,55,0.00,,CLR,0.00,VWS V14.01,2013-01-13 10:26:00,
2013-01-13 03:31:00,10.4,-2.6,23.71,SSW,193,0.0,0.0,55,0.00,,CLR,0.00,VWS V14.01,2013-01-13 10:31:00,
2013-01-13 03:36:00,10.4,-2.6,23.71,SSW,194,0.0,0.0,55,0.00,,CLR,0.00,VWS V14.01,2013-01-13 10:36:00,
2013-01-13 03:41:00,10.4,-2.6,23.71,SSW,193,0.0,0.0,55,0.00,,CLR,0.00,VWS V14.01,2013-01-13 10:41:00,
2013-01-13 03:46:00,10.4,-2.6,23.71,SSW,194,0.0,0.0,55,0.00,,CLR,0.00,VWS V14.01,2013-01-13 10:46:00,
2013-01-13 03:51:00,10.2,-2.7,23.71,SSW,194,0.0,0.0,55,0.00,,CLR,0.00,VWS V14.01,2013-01-13 10:51:00,
2013-01-13 03:56:00,10.2,-2.7,23.71,SSW,193,0.0,0.0,55,0.00,,CLR,0.00,VWS V14.01,2013-01-13 10:56:00,
2013-01-13 04:01:00,10.0,-2.9,23.71,SSW,193,0.0,0.0,55,0.00,,CLR,0.00,VWS V14.01,2013-01-13 11:01:00,
2013-01-13 04:06:00,10.0,-2.9,23.71,SSW,193,0.0,0.0,55,0.00,,CLR,0.00,VWS V14.01,2013-01-13 11:06:00,
2013-01-13 04:11:00,10.0,-2.9,23.71,SSW,193,0.0,0.0,55,0.00,,CLR,0.00,VWS V14.01,2013-01-13 11:11:00,
2013-01-13 04:16:00,10.0,-2.9,23.71,SSW,193,0.0,0.0,55,0.00,,CLR,0.00,VWS V14.01,2013-01-13 11:16:00,
2013-01-13 04:21:00,10.0,-2.9,23.71,SSW,193,0.0,0.0,55,0.00,,CLR,0.00,VWS V14.01,2013-01-13 11:21:00,
2013-01-13 04:26:00,10.0,-2.9,23.71,SSW,193,0.0,0.0,55,0.00,,CLR,0.00,VWS V14.01,2013-01-13 11:26:00,
2013-01-13 04:31:00,10.0,-2.9,23.71,SSW,193,0.0,0.0,55,0.00,,CLR,0.00,VWS V14.01,2013-01-13 11:31:00,
2013-01-13 04:36:00,9.9,-3.1,23.71,SSW,193,0.0,0.0,55,0.00,,CLR,0.00,VWS V14.01,2013-01-13 11:36:00,
2013-01-13 04:41:00,9.7,-3.2,23.71,SSW,192,0.0,0.0,55,0.00,,CLR,0.00,VWS V14.01,2013-01-13 11:41:00,
2013-01-13 04:46:00,9.7,-3.2,23.68,SSW,192,0.0,0.0,55,0.00,,CLR,0.00,VWS V14.01,2013-01-13 11:46:00,
2013-01-13 04:51:00,9.7,-3.2,23.68,SSW,192,0.0,0.0,55,0.00,,CLR,0.00,VWS V14.01,2013-01-13 11:51:00,
2013-01-13 04:56:00,9.7,-3.2,23.68,SSW,192,0.0,0.0,55,0.00,,CLR,0.00,VWS V14.01,2013-01-13 11:56:00,
2013-01-13 05:01:00,9.7,-3.2,23.68,SSW,192,0.0,0.0,55,0.00,,CLR,0.00,VWS V14.01,2013-01-13 12:01:00,
2013-01-13 05:06:00,9.7,-3.2,23.68,SSW,192,0.0,0.0,55,0.00,,CLR,0.00,VWS V14.01,2013-01-13 12:06:00,
2013-01-13 05:11:00,9.3,-3.6,23.68,SSW,192,0.0,0.0,55,0.00,,CLR,0.00,VWS V14.01,2013-01-13 12:11:00,
2013-01-13 05:16:00,9.3,-3.6,23.68,SSW,192,0.0,0.0,55,0.00,,CLR,0.00,VWS V14.01,2013-01-13 12:16:00,
2013-01-13 05:21:00,9.3,-3.6,23.68,SSW,192,0.0,0.0,55,0.00,,CLR,0.00,VWS V14.01,2013-01-13 12:21:00,
2013-01-13 05:26:00,9.3,-3.6,23.68,SSW,192,0.0,0.0,55,0.00,,CLR,0.00,VWS V14.01,2013-01-13 12:26:00,
2013-01-13 05:31:00,9.1,-3.7,23.68,SSW,192,0.0,0.0,55,0.00,,CLR,0.00,VWS V14.01,2013-01-13 12:31:00,
2013-01-13 05:36:00,9.1,-3.7,23.68,SSW,192,0.0,0.0,55,0.00,,CLR,0.00,VWS V14.01,2013-01-13 12:36:00,
2013-01-13 05:41:00,9.0,-3.9,23.68,SSW,192,0.0,0.0,55,0.00,,CLR,0.00,VWS V14.01,2013-01-13 12:41:00,
2013-01-13 05:46:00,9.1,-3.7,23.68,SSW,192,0.0,0.0,55,0.00,,CLR,0.00,VWS V14.01,2013-01-13 12:46:00,
2013-01-13 05:51:00,9.1,-3.7,23.68,SSW,192,0.0,0.0,55,0.00,,CLR,0.00,VWS V14.01,2013-01-13 12:51:00,
2013-01-13 05:56:00,9.1,-3.7,23.68,SSW,192,0.0,0.0,55,0.00,,CLR,0.00,VWS V14.01,2013-01-13 12:56:00,
2013-01-13 06:01:00,9.1,-3.7,23.71,SSW,192,0.0,0.0,55,0.00,,CLR,0.00,VWS V14.01,2013-01-13 13:01:00,
2013-01-13 06:06:00,9.1,-3.7,23.71,SSW,192,0.0,0.0,55,0.00,,CLR,0.00,VWS V14.01,2013-01-13 13:06:00,
2013-01-13 06:11:00,9.0,-3.9,23.71,SSW,192,0.0,0.0,55,0.00,,CLR,0.00,VWS V14.01,2013-01-13 13:11:00,
2013-01-13 06:16:00,8.8,-4.1,23.71,SSW,192,0.0,0.0,55,0.00,,CLR,0.00,VWS V14.01,2013-01-13 13:16:00,
2013-01-13 06:21:00,9.1,-3.7,23.71,SSW,192,0.0,0.0,55,0.00,,CLR,0.00,VWS V14.01,2013-01-13 13:21:00,
2013-01-13 06:26:00,9.1,-3.7,23.71,SSW,192,0.0,0.0,55,0.00,,CLR,0.00,VWS V14.01,2013-01-13 13:26:00,
2013-01-13 06:31:00,9.1,-3.7,23.71,SSW,192,0.0,0.0,55,0.00,,CLR,0.00,VWS V14.01,2013-01-13 13:31:00,
2013-01-13 06:36:00,9.1,-3.7,23.71,South,191,0.0,0.0,55,0.00,,CLR,0.00,VWS V14.01,2013-01-13 13:36:00,
2013-01-13 06:41:00,9.1,-3.7,23.71,South,191,0.0,0.0,55,0.00,,CLR,0.00,VWS V14.01,2013-01-13 13:41:00,
2013-01-13 06:46:00,8.8,-4.1,23.71,South,185,0.0,0.0,55,0.00,,CLR,0.00,VWS V14.01,2013-01-13 13:46:00,
2013-01-13 06:51:00,8.8,-4.1,23.71,South,185,0.0,0.0,55,0.00,,CLR,0.00,VWS V14.01,2013-01-13 13:51:00,
2013-01-13 06:56:00,8.8,-4.1,23.71,South,185,0.0,0.0,55,0.00,,CLR,0.00,VWS V14.01,2013-01-13 13:56:00,
2013-01-13 07:01:00,9.0,-3.9,23.71,South,185,0.0,0.0,55,0.00,,CLR,0.00,VWS V14.01,2013-01-13 14:01:00,
2013-01-13 07:06:00,9.0,-3.9,23.71,South,185,0.0,0.0,55,0.00,,CLR,0.00,VWS V14.01,2013-01-13 14:06:00,
2013-01-13 07:11:00,9.0,-3.9,23.71,South,185,0.0,0.0,55,0.00,,CLR,0.00,VWS V14.01,2013-01-13 14:11:00,
2013-01-13 07:16:00,9.1,-3.7,23.71,South,185,0.0,0.0,55,0.00,,CLR,0.00,VWS V14.01,2013-01-13 14:16:00,
2013-01-13 07:21:00,9.3,-3.6,23.71,South,185,0.0,0.0,55,0.00,,CLR,0.00,VWS V14.01,2013-01-13 14:21:00,
2013-01-13 07:26:00,9.3,-3.6,23.71,South,185,0.0,0.0,55,0.00,,CLR,0.00,VWS V14.01,2013-01-13 14:26:00,
2013-01-13 07:31:00,9.0,-3.9,23.71,South,185,0.0,0.0,55,0.00,,CLR,0.00,VWS V14.01,2013-01-13 14:31:00,
2013-01-13 07:36:00,8.8,-4.1,23.71,South,185,0.0,0.0,55,0.00,,CLR,0.00,VWS V14.01,2013-01-13 14:36:00,
2013-01-13 07:41:00,8.6,-4.2,23.71,South,185,0.0,0.0,55,0.00,,CLR,0.00,VWS V14.01,2013-01-13 14:41:00,
2013-01-13 07:46:00,8.6,-4.2,23.71,South,185,0.0,0.0,55,0.00,,CLR,0.00,VWS V14.01,2013-01-13 14:46:00,
2013-01-13 07:51:00,8.4,-4.4,23.71,South,185,0.0,0.0,55,0.00,,CLR,0.00,VWS V14.01,2013-01-13 14:51:00,
2013-01-13 07:56:00,8.6,-4.2,23.71,South,185,0.0,0.0,55,0.00,,CLR,0.00,VWS V14.01,2013-01-13 14:56:00,
2013-01-13 08:01:00,8.8,-4.1,23.71,South,185,0.0,0.0,55,0.00,,CLR,0.00,VWS V14.01,2013-01-13 15:01:00,
2013-01-13 08:06:00,8.8,-4.1,23.71,South,185,0.0,0.0,55,0.00,,CLR,0.00,VWS V14.01,2013-01-13 15:06:00,
2013-01-13 08:11:00,9.0,-3.9,23.71,South,185,0.0,0.0,55,0.00,,CLR,0.00,VWS V14.01,2013-01-13 15:11:00,
2013-01-13 08:16:00,9.0,-3.9,23.71,South,182,0.0,0.0,55,0.00,,CLR,0.00,VWS V14.01,2013-01-13 15:16:00,
2013-01-13 08:21:00,9.1,-3.7,23.71,South,182,0.0,0.0,55,0.00,,CLR,0.00,VWS V14.01,2013-01-13 15:21:00,
2013-01-13 08:26:00,9.3,-3.6,23.71,South,182,0.0,0.0,55,0.00,,CLR,0.00,VWS V14.01,2013-01-13 15:26:00,
2013-01-13 08:31:00,9.5,-3.4,23.71,South,182,0.0,0.0,55,0.00,,CLR,0.00,VWS V14.01,2013-01-13 15:31:00,
2013-01-13 08:36:00,10.2,-2.7,23.71,South,182,0.0,0.0,55,0.00,,CLR,0.00,VWS V14.01,2013-01-13 15:36:00,
2013-01-13 08:41:00,10.8,-2.2,23.71,South,181,0.0,0.0,55,0.00,,CLR,0.00,VWS V14.01,2013-01-13 15:41:00,
2013-01-13 08:46:00,10.9,-2.0,23.71,South,181,0.0,0.0,55,0.00,,CLR,0.00,VWS V14.01,2013-01-13 15:46:00,
2013-01-13 08:51:00,11.3,-1.7,23.71,South,181,0.0,0.0,55,0.00,,CLR,0.00,VWS V14.01,2013-01-13 15:51:00,
2013-01-13 08:56:00,11.7,-1.4,23.71,South,181,0.0,0.0,55,0.00,,CLR,0.00,VWS V14.01,2013-01-13 15:56:00,
2013-01-13 09:01:00,12.2,-0.9,23.74,South,181,0.0,0.0,55,0.00,,CLR,0.00,VWS V14.01,2013-01-13 16:01:00,
2013-01-13 09:06:00,12.7,-0.4,23.74,South,174,0.0,0.0,55,0.00,,CLR,0.00,VWS V14.01,2013-01-13 16:06:00,
2013-01-13 09:11:00,13.3,0.2,23.74,South,174,0.0,0.0,55,0.00,,CLR,0.00,VWS V14.01,2013-01-13 16:11:00,
2013-01-13 09:16:00,14.2,2.1,23.74,West,266,0.0,3.1,58,0.00,,CLR,0.00,VWS V14.01,2013-01-13 16:16:00,
2013-01-13 09:21:00,15.3,2.8,23.74,West,266,0.0,0.0,57,0.00,,CLR,0.00,VWS V14.01,2013-01-13 16:21:00,
2013-01-13 09:27:00,16.5,3.2,23.74,NNW,344,0.0,0.0,55,0.00,,CLR,0.00,VWS V14.01,2013-01-13 16:27:00,
2013-01-13 09:32:00,17.6,3.8,23.74,East,91,0.0,2.7,54,0.00,,CLR,0.00,VWS V14.01,2013-01-13 16:32:00,
2013-01-13 09:37:00,18.9,3.3,23.74,SW,236,0.0,3.1,50,0.00,,CLR,0.00,VWS V14.01,2013-01-13 16:37:00,
2013-01-13 09:42:00,19.9,3.0,23.74,SSW,205,0.0,2.7,47,0.00,,CLR,0.00,VWS V14.01,2013-01-13 16:42:00,
2013-01-13 09:47:00,20.7,3.2,23.74,SW,220,2.2,3.1,46,0.00,,CLR,0.00,VWS V14.01,2013-01-13 16:47:00,
2013-01-13 09:52:00,21.2,2.7,23.74,NNW,339,0.0,3.1,44,0.00,,CLR,0.00,VWS V14.01,2013-01-13 16:52:00,
2013-01-13 09:57:00,21.9,2.9,23.74,NE,35,0.0,3.1,43,0.00,,CLR,0.00,VWS V14.01,2013-01-13 16:57:00,
2013-01-13 10:02:00,22.5,3.4,23.74,WSW,241,0.0,3.1,43,0.00,,CLR,0.00,VWS V14.01,2013-01-13 17:02:00,
2013-01-13 10:07:00,22.6,3.0,23.74,WSW,256,0.0,0.0,42,0.00,,CLR,0.00,VWS V14.01,2013-01-13 17:07:00,
2013-01-13 10:12:00,23.0,3.3,23.74,SSW,203,0.0,2.2,42,0.00,,CLR,0.00,VWS V14.01,2013-01-13 17:12:00,
2013-01-13 10:17:00,23.9,4.2,23.71,SSW,211,0.0,3.1,42,0.00,,CLR,0.00,VWS V14.01,2013-01-13 17:17:00,
2013-01-13 10:22:00,24.4,4.7,23.71,WSW,250,6.3,6.3,42,0.00,,CLR,0.00,VWS V14.01,2013-01-13 17:22:00,
2013-01-13 10:27:00,24.4,3.0,23.71,NNE,21,3.6,6.3,39,0.00,,CLR,0.00,VWS V14.01,2013-01-13 17:27:00,
2013-01-13 10:32:00,24.6,3.2,23.71,NE,41,0.0,6.3,39,0.00,,CLR,0.00,VWS V14.01,2013-01-13 17:32:00,
2013-01-13 10:37:00,24.8,2.8,23.71,WSW,244,3.6,4.5,38,0.00,,CLR,0.00,VWS V14.01,2013-01-13 17:37:00,
2013-01-13 10:42:00,25.2,3.1,23.71,NNW,342,0.0,2.7,38,0.00,,CLR,0.00,VWS V14.01,2013-01-13 17:42:00,
2013-01-13 10:47:00,25.7,3.0,23.71,SW,230,3.1,4.0,37,0.00,,CLR,0.00,VWS V14.01,2013-01-13 17:47:00,
2013-01-13 10:52:00,26.1,2.8,23.71,NE,53,3.1,4.9,36,0.00,,CLR,0.00,VWS V14.01,2013-01-13 17:52:00,
2013-01-13 10:57:00,26.6,3.8,23.71,ESE,102,2.2,4.9,37,0.00,,CLR,0.00,VWS V14.01,2013-01-13 17:57:00,
2013-01-13 11:02:00,27.1,3.7,23.71,North,357,0.0,0.0,36,0.00,,CLR,0.00,VWS V14.01,2013-01-13 18:02:00,
2013-01-13 11:07:00,27.1,3.1,23.71,NE,39,3.6,4.0,35,0.00,,CLR,0.00,VWS V14.01,2013-01-13 18:07:00,
2013-01-13 11:12:00,27.5,3.5,23.71,NNE,13,0.0,5.4,35,0.00,,CLR,0.00,VWS V14.01,2013-01-13 18:12:00,
2013-01-13 11:17:00,28.0,3.9,23.71,NNE,15,0.0,5.4,35,0.00,,CLR,0.00,VWS V14.01,2013-01-13 18:17:00,
2013-01-13 11:22:00,28.2,4.1,23.71,NNE,20,0.0,0.0,35,0.00,,CLR,0.00,VWS V14.01,2013-01-13 18:22:00,
2013-01-13 11:27:00,28.8,4.6,23.71,SW,227,2.7,3.6,35,0.00,,CLR,0.00,VWS V14.01,2013-01-13 18:27:00,
2013-01-13 11:32:00,28.9,4.1,23.71,NW,308,2.7,4.9,34,0.00,,CLR,0.00,VWS V14.01,2013-01-13 18:32:00,
2013-01-13 11:37:00,29.1,4.3,23.71,North,0,3.6,3.6,34,0.00,,CLR,0.00,VWS V14.01,2013-01-13 18:37:00,
2013-01-13 11:42:00,28.9,4.1,23.71,NNE,23,5.4,5.4,34,0.00,,CLR,0.00,VWS V14.01,2013-01-13 18:42:00,
2013-01-13 11:47:00,28.9,4.1,23.71,SW,218,4.0,5.4,34,0.00,,CLR,0.00,VWS V14.01,2013-01-13 18:47:00,
2013-01-13 11:52:00,29.7,4.7,23.71,SSW,195,2.7,5.8,34,0.00,,CLR,0.00,VWS V14.01,2013-01-13 18:52:00,
2013-01-13 11:57:00,30.0,5.1,23.71,WNW,292,3.6,6.3,34,0.00,,CLR,0.00,VWS V14.01,2013-01-13 18:57:00,
2013-01-13 12:02:00,30.4,4.7,23.68,SW,222,4.0,4.0,33,0.00,,CLR,0.00,VWS V14.01,2013-01-13 19:02:00,
2013-01-13 12:07:00,31.3,5.5,23.68,NNE,30,2.7,2.7,33,0.00,,CLR,0.00,VWS V14.01,2013-01-13 19:07:00,
2013-01-13 12:12:00,30.6,4.2,23.68,NNE,22,3.1,5.8,32,0.00,,CLR,0.00,VWS V14.01,2013-01-13 19:12:00,
2013-01-13 12:17:00,30.6,4.9,23.68,SSE,163,0.0,5.8,33,0.00,,CLR,0.00,VWS V14.01,2013-01-13 19:17:00,
2013-01-13 12:22:00,31.5,5.0,23.68,NNE,17,0.0,4.0,32,0.00,,CLR,0.00,VWS V14.01,2013-01-13 19:22:00,
2013-01-13 12:27:00,32.2,5.7,23.68,NNE,23,2.2,4.9,32,0.00,,CLR,0.00,VWS V14.01,2013-01-13 19:27:00,
2013-01-13 12:32:00,32.0,5.5,23.68,SW,226,3.1,6.3,32,0.00,,CLR,0.00,VWS V14.01,2013-01-13 19:32:00,
2013-01-13 12:37:00,33.1,6.4,23.68,West,265,3.1,3.6,32,0.00,,CLR,0.00,VWS V14.01,2013-01-13 19:37:00,
2013-01-13 12:41:00,33.6,6.9,23.68,SW,217,2.7,4.0,32,0.00,,CLR,0.00,VWS V14.01,2013-01-13 19:41:00,
2013-01-13 12:46:00,34.2,6.7,23.68,WNW,299,5.4,6.3,31,0.00,,CLR,0.00,VWS V14.01,2013-01-13 19:46:00,
2013-01-13 12:51:00,34.0,7.2,23.68,WSW,241,0.0,6.3,32,0.00,,CLR,0.00,VWS V14.01,2013-01-13 19:51:00,
2013-01-13 12:56:00,34.5,7.0,23.68,WNW,291,3.1,7.6,31,0.00,,CLR,0.00,VWS V14.01,2013-01-13 19:56:00,
2013-01-13 13:01:00,34.5,7.0,23.68,WSW,251,3.6,5.4,31,0.00,,CLR,0.00,VWS V14.01,2013-01-13 20:01:00,
2013-01-13 13:06:00,34.3,6.9,23.68,SSW,203,0.0,0.0,31,0.00,,CLR,0.00,VWS V14.01,2013-01-13 20:06:00,
2013-01-13 13:11:00,34.2,6.7,23.68,North,7,3.6,8.1,31,0.00,,CLR,0.00,VWS V14.01,2013-01-13 20:11:00,
2013-01-13 13:16:00,33.8,6.4,23.65,NNE,19,4.9,8.1,31,0.00,,CLR,0.00,VWS V14.01,2013-01-13 20:16:00,
2013-01-13 13:21:00,33.4,6.1,23.65,East,82,4.5,7.6,31,0.00,,CLR,0.00,VWS V14.01,2013-01-13 20:21:00,
2013-01-13 13:26:00,32.9,5.6,23.65,WNW,294,3.1,7.6,31,0.00,,CLR,0.00,VWS V14.01,2013-01-13 20:26:00,
2013-01-13 13:31:00,34.0,6.5,23.65,East,91,2.2,7.6,31,0.00,,CLR,0.00,VWS V14.01,2013-01-13 20:31:00,
2013-01-13 13:36:00,34.9,7.3,23.65,NNE,24,0.0,0.0,31,0.00,,,0.00,VWS V14.01,2013-01-13 20:36:00,
2013-01-13 13:41:00,34.3,6.9,23.65,NNW,328,0.0,5.4,31,0.00,,,0.00,VWS V14.01,2013-01-13 20:41:00,
2013-01-13 13:46:00,34.0,6.5,23.65,SW,231,0.0,6.3,31,0.00,,,0.00,VWS V14.01,2013-01-13 20:46:00,
2013-01-13 13:51:00,34.0,6.5,23.65,West,278,2.2,6.3,31,0.00,,,0.00,VWS V14.01,2013-01-13 20:51:00,
2013-01-13 13:56:00,34.0,6.5,23.65,NNE,15,3.1,6.3,31,0.00,,,0.00,VWS V14.01,2013-01-13 20:56:00,
2013-01-13 14:01:00,33.3,5.9,23.65,East,95,4.0,4.0,31,0.00,,CLR,0.00,VWS V14.01,2013-01-13 21:01:00,
2013-01-13 14:06:00,32.4,5.1,23.65,NE,54,3.6,3.6,31,0.00,,CLR,0.00,VWS V14.01,2013-01-13 21:06:00,
2013-01-13 14:11:00,32.4,5.1,23.65,WNW,295,2.7,6.3,31,0.00,,CLR,0.00,VWS V14.01,2013-01-13 21:11:00,
2013-01-13 14:16:00,32.9,5.6,23.65,West,260,3.1,6.3,31,0.00,,CLR,0.00,VWS V14.01,2013-01-13 21:16:00,
2013-01-13 14:21:00,33.1,5.8,23.65,NNW,338,4.0,5.4,31,0.00,,CLR,0.00,VWS V14.01,2013-01-13 21:21:00,
2013-01-13 14:26:00,32.7,5.4,23.65,NE,41,3.6,6.3,31,0.00,,CLR,0.00,VWS V14.01,2013-01-13 21:26:00,
2013-01-13 14:31:00,31.5,4.3,23.65,North,353,0.0,6.3,31,0.00,,CLR,0.00,VWS V14.01,2013-01-13 21:31:00,
2013-01-13 14:36:00,31.1,4.0,23.65,North,2,0.0,0.0,31,0.00,,CLR,0.00,VWS V14.01,2013-01-13 21:36:00,
2013-01-13 14:41:00,30.9,3.8,23.65,WSW,253,2.2,5.4,31,0.00,,CLR,0.00,VWS V14.01,2013-01-13 21:41:00,
2013-01-13 14:46:00,30.6,3.5,23.65,SSW,196,3.6,5.4,31,0.00,,CLR,0.00,VWS V14.01,2013-01-13 21:46:00,
2013-01-13 14:51:00,30.9,4.5,23.65,ESE,108,5.8,5.8,32,0.00,,CLR,0.00,VWS V14.01,2013-01-13 21:51:00,
2013-01-13 14:56:00,31.1,4.7,23.65,SSE,160,0.0,5.8,32,0.00,,CLR,0.00,VWS V14.01,2013-01-13 21:56:00,
2013-01-13 15:01:00,30.7,3.7,23.65,NW,313,2.2,3.6,31,0.00,,CLR,0.00,VWS V14.01,2013-01-13 22:01:00,
2013-01-13 15:06:00,31.5,4.3,23.65,West,278,3.1,4.0,31,0.00,,CLR,0.00,VWS V14.01,2013-01-13 22:06:00,
2013-01-13 15:11:00,31.5,4.3,23.65,South,172,3.1,6.3,31,0.00,,CLR,0.00,VWS V14.01,2013-01-13 22:11:00,
2013-01-13 15:16:00,30.9,3.8,23.65,East,79,5.8,6.3,31,0.00,,CLR,0.00,VWS V14.01,2013-01-13 22:16:00,
2013-01-13 15:21:00,30.7,4.4,23.65,NE,37,4.0,4.0,32,0.00,,CLR,0.00,VWS V14.01,2013-01-13 22:21:00,
2013-01-13 15:26:00,31.1,4.0,23.65,NW,325,3.6,5.8,31,0.00,,CLR,0.00,VWS V14.01,2013-01-13 22:26:00,
2013-01-13 15:31:00,30.6,3.5,23.65,West,271,2.2,5.8,31,0.00,,CLR,0.00,VWS V14.01,2013-01-13 22:31:00,
2013-01-13 15:36:00,30.4,4.1,23.65,North,0,0.0,0.0,32,0.00,,,0.00,VWS V14.01,2013-01-13 22:36:00,
2013-01-13 15:41:00,30.6,4.2,23.65,NE,52,4.0,4.9,32,0.00,,,0.00,VWS V14.01,2013-01-13 22:41:00,
2013-01-13 15:46:00,30.2,3.9,23.65,NNW,348,3.1,5.4,32,0.00,,CLR,0.00,VWS V14.01,2013-01-13 22:46:00,
2013-01-13 15:51:00,29.8,3.6,23.65,East,94,2.7,6.3,32,0.00,,CLR,0.00,VWS V14.01,2013-01-13 22:51:00,
2013-01-13 15:56:00,29.3,3.1,23.65,SW,229,3.1,6.3,32,0.00,,CLR,0.00,VWS V14.01,2013-01-13 22:56:00,
2013-01-13 16:01:00,29.1,3.0,23.65,West,263,0.0,0.0,32,0.00,,CLR,0.00,VWS V14.01,2013-01-13 23:01:00,
2013-01-13 16:06:00,29.1,3.0,23.65,NNW,333,0.0,0.0,32,0.00,,CLR,0.00,VWS V14.01,2013-01-13 23:06:00,
2013-01-13 16:11:00,28.6,2.5,23.65,WNW,297,2.2,4.0,32,0.00,,CLR,0.00,VWS V14.01,2013-01-13 23:11:00,
2013-01-13 16:16:00,28.6,2.5,23.65,East,97,3.1,4.9,32,0.00,,CLR,0.00,VWS V14.01,2013-01-13 23:16:00,
2013-01-13 16:21:00,27.9,2.5,23.65,West,261,3.6,4.0,33,0.00,,CLR,0.00,VWS V14.01,2013-01-13 23:21:00,
2013-01-13 16:26:00,27.5,2.2,23.65,NNW,341,3.6,4.0,33,0.00,,CLR,0.00,VWS V14.01,2013-01-13 23:26:00,
2013-01-13 16:31:00,27.3,2.0,23.65,ENE,70,5.8,5.8,33,0.00,,CLR,0.00,VWS V14.01,2013-01-13 23:31:00,
2013-01-13 16:36:00,27.1,1.9,23.65,NW,315,0.0,0.0,33,0.00,,CLR,0.00,VWS V14.01,2013-01-13 23:36:00,
2013-01-13 16:41:00,27.3,2.0,23.65,WNW,287,2.7,3.1,33,0.00,,CLR,0.00,VWS V14.01,2013-01-13 23:41:00,
2013-01-13 16:46:00,27.0,1.7,23.65,NNE,17,3.1,5.4,33,0.00,,CLR,0.00,VWS V14.01,2013-01-13 23:46:00,
2013-01-13 16:51:00,26.4,1.2,23.65,West,262,0.0,5.4,33,0.00,,CLR,0.00,VWS V14.01,2013-01-13 23:51:00,
2013-01-13 16:56:00,26.4,1.2,23.65,North,357,0.0,5.4,33,0.00,,CLR,0.00,VWS V14.01,2013-01-13 23:56:00,
2013-01-13 17:01:00,26.4,1.2,23.65,NW,304,0.0,0.0,33,0.00,,CLR,0.00,VWS V14.01,2013-01-14 00:01:00,
2013-01-13 17:06:00,25.9,0.8,23.65,ESE,108,0.0,0.0,33,0.00,,CLR,0.00,VWS V14.01,2013-01-14 00:06:00,
2013-01-13 17:11:00,25.5,0.4,23.65,WNW,292,0.0,3.6,33,0.00,,CLR,0.00,VWS V14.01,2013-01-14 00:11:00,
2013-01-13 17:16:00,25.3,0.3,23.68,NW,321,3.1,4.9,33,0.00,,CLR,0.00,VWS V14.01,2013-01-14 00:16:00,
2013-01-13 17:21:00,24.8,0.4,23.68,North,353,2.7,4.9,34,0.00,,CLR,0.00,VWS V14.01,2013-01-14 00:21:00,
2013-01-13 17:26:00,24.4,0.1,23.68,WNW,288,0.0,5.4,34,0.00,,CLR,0.00,VWS V14.01,2013-01-14 00:26:00,
2013-01-13 17:31:00,24.4,0.1,23.68,NNW,338,0.0,5.4,34,0.00,,CLR,0.00,VWS V14.01,2013-01-14 00:31:00,
2013-01-13 17:36:00,24.3,-0.1,23.68,SSE,156,0.0,0.0,34,0.00,,,0.00,VWS V14.01,2013-01-14 00:36:00,
2013-01-13 17:41:00,23.9,-0.4,23.68,NW,324,0.0,0.0,34,0.00,,,0.00,VWS V14.01,2013-01-14 00:41:00,
2013-01-13 17:46:00,23.9,-0.4,23.68,NW,324,0.0,0.0,34,0.00,,CLR,0.00,VWS V14.01,2013-01-14 00:46:00,
2013-01-13 17:51:00,23.7,0.1,23.68,NNW,340,0.0,4.9,35,0.00,,CLR,0.00,VWS V14.01,2013-01-14 00:51:00,
2013-01-13 17:56:00,23.5,-0.1,23.68,SSE,166,0.0,6.3,35,0.00,,CLR,0.00,VWS V14.01,2013-01-14 00:56:00,
2013-01-13 18:01:00,23.2,-0.4,23.65,South,173,0.0,0.0,35,0.00,,CLR,0.00,VWS V14.01,2013-01-14 01:01:00,
2013-01-13 18:06:00,22.8,-0.1,23.65,South,177,0.0,0.0,36,0.00,,CLR,0.00,VWS V14.01,2013-01-14 01:06:00,
2013-01-13 18:11:00,22.8,0.5,23.65,South,177,0.0,0.0,37,0.00,,CLR,0.00,VWS V14.01,2013-01-14 01:11:00,
2013-01-13 18:16:00,22.3,0.5,23.65,South,178,0.0,0.0,38,0.00,,CLR,0.00,VWS V14.01,2013-01-14 01:16:00,
2013-01-13 18:21:00,21.9,0.2,23.65,South,184,0.0,0.0,38,0.00,,CLR,0.00,VWS V14.01,2013-01-14 01:21:00,
2013-01-13 18:26:00,21.7,1.1,23.65,South,185,0.0,0.0,40,0.00,,CLR,0.00,VWS V14.01,2013-01-14 01:26:00,
2013-01-13 18:31:00,21.4,0.8,23.68,SSW,208,0.0,0.0,40,0.00,,CLR,0.00,VWS V14.01,2013-01-14 01:31:00,
2013-01-13 18:36:00,21.2,1.7,23.68,SSW,210,0.0,0.0,42,0.00,,CLR,0.00,VWS V14.01,2013-01-14 01:36:00,
2013-01-13 18:41:00,21.0,2.0,23.68,SSW,209,0.0,0.0,43,0.00,,CLR,0.00,VWS V14.01,2013-01-14 01:41:00,
2013-01-13 18:46:00,20.7,1.7,23.68,SSW,198,0.0,0.0,43,0.00,,CLR,0.00,VWS V14.01,2013-01-14 01:46:00,
2013-01-13 18:51:00,20.5,1.5,23.68,SSW,197,0.0,0.0,43,0.00,,CLR,0.00,VWS V14.01,2013-01-14 01:51:00,
2013-01-13 18:56:00,20.3,1.4,23.68,SSW,197,0.0,0.0,43,0.00,,CLR,0.00,VWS V14.01,2013-01-14 01:56:00,
2013-01-13 19:01:00,20.1,1.2,23.68,SSW,207,0.0,0.0,43,0.00,,CLR,0.00,VWS V14.01,2013-01-14 02:01:00,
2013-01-13 19:06:00,20.1,1.2,23.68,SW,214,0.0,0.0,43,0.00,,CLR,0.00,VWS V14.01,2013-01-14 02:06:00,
2013-01-13 19:11:00,20.1,1.2,23.68,SSW,211,0.0,0.0,43,0.00,,CLR,0.00,VWS V14.01,2013-01-14 02:11:00,
2013-01-13 19:16:00,19.9,1.5,23.68,SSW,207,0.0,0.0,44,0.00,,CLR,0.00,VWS V14.01,2013-01-14 02:16:00,
2013-01-13 19:21:00,19.8,1.4,23.68,SSW,208,0.0,0.0,44,0.00,,CLR,0.00,VWS V14.01,2013-01-14 02:21:00,
2013-01-13 19:26:00,19.8,1.4,23.68,WSW,242,0.0,0.0,44,0.00,,CLR,0.00,VWS V14.01,2013-01-14 02:26:00,
2013-01-13 19:31:00,19.8,1.4,23.68,WSW,238,0.0,0.0,44,0.00,,CLR,0.00,VWS V14.01,2013-01-14 02:31:00,
2013-01-13 19:36:00,19.9,1.5,23.68,SSW,203,0.0,0.0,44,0.00,,CLR,0.00,VWS V14.01,2013-01-14 02:36:00,
2013-01-13 19:41:00,19.9,2.0,23.68,WSW,249,0.0,0.0,45,0.00,,CLR,0.00,VWS V14.01,2013-01-14 02:41:00,
2013-01-13 19:46:00,19.9,1.5,23.68,SW,233,0.0,0.0,44,0.00,,CLR,0.00,VWS V14.01,2013-01-14 02:46:00,
2013-01-13 19:51:00,20.1,1.7,23.68,SSW,206,0.0,0.0,44,0.00,,CLR,0.00,VWS V14.01,2013-01-14 02:51:00,
2013-01-13 19:56:00,20.1,1.7,23.68,SSW,199,0.0,0.0,44,0.00,,CLR,0.00,VWS V14.01,2013-01-14 02:56:00,
2013-01-13 20:01:00,20.1,1.7,23.68,South,182,0.0,0.0,44,0.00,,CLR,0.00,VWS V14.01,2013-01-14 03:01:00,
2013-01-13 20:06:00,19.9,1.5,23.68,SSW,211,0.0,0.0,44,0.00,,CLR,0.00,VWS V14.01,2013-01-14 03:06:00,
2013-01-13 20:11:00,19.9,1.5,23.68,SSW,212,0.0,0.0,44,0.00,,CLR,0.00,VWS V14.01,2013-01-14 03:11:00,
2013-01-13 20:16:00,19.9,1.5,23.68,SSW,212,0.0,0.0,44,0.00,,CLR,0.00,VWS V14.01,2013-01-14 03:16:00,
2013-01-13 20:21:00,19.9,1.5,23.68,SSW,212,0.0,0.0,44,0.00,,CLR,0.00,VWS V14.01,2013-01-14 03:21:00,
2013-01-13 20:26:00,19.9,1.5,23.68,SSW,212,0.0,0.0,44,0.00,,CLR,0.00,VWS V14.01,2013-01-14 03:26:00,
2013-01-13 20:31:00,19.8,1.4,23.65,SW,230,0.0,0.0,44,0.00,,CLR,0.00,VWS V14.01,2013-01-14 03:31:00,
2013-01-13 20:36:00,19.8,1.4,23.65,SW,230,0.0,0.0,44,0.00,,CLR,0.00,VWS V14.01,2013-01-14 03:36:00,
2013-01-13 20:41:00,19.6,1.2,23.65,SW,230,0.0,0.0,44,0.00,,CLR,0.00,VWS V14.01,2013-01-14 03:41:00,
2013-01-13 20:46:00,19.6,1.7,23.65,SW,230,0.0,0.0,45,0.00,,CLR,0.00,VWS V14.01,2013-01-14 03:46:00,
2013-01-13 20:51:00,19.6,1.7,23.65,SW,230,0.0,0.0,45,0.00,,CLR,0.00,VWS V14.01,2013-01-14 03:51:00,
2013-01-13 20:56:00,19.4,1.5,23.65,SW,230,0.0,0.0,45,0.00,,CLR,0.00,VWS V14.01,2013-01-14 03:56:00,
2013-01-13 21:01:00,19.2,1.4,23.65,SW,230,0.0,0.0,45,0.00,,CLR,0.00,VWS V14.01,2013-01-14 04:01:00,
2013-01-13 21:06:00,19.0,1.2,23.65,SW,230,0.0,0.0,45,0.00,,CLR,0.00,VWS V14.01,2013-01-14 04:06:00,
2013-01-13 21:11:00,19.0,1.7,23.65,SW,230,0.0,0.0,46,0.00,,CLR,0.00,VWS V14.01,2013-01-14 04:11:00,
2013-01-13 21:16:00,18.5,1.2,23.68,SW,230,0.0,0.0,46,0.00,,CLR,0.00,VWS V14.01,2013-01-14 04:16:00,
2013-01-13 21:21:00,18.1,0.9,23.68,SW,226,0.0,0.0,46,0.00,,CLR,0.00,VWS V14.01,2013-01-14 04:21:00,
2013-01-13 21:26:00,17.8,0.5,23.68,SW,226,0.0,0.0,46,0.00,,CLR,0.00,VWS V14.01,2013-01-14 04:26:00,
2013-01-13 21:31:00,17.6,0.3,23.65,SW,222,0.0,0.0,46,0.00,,CLR,0.00,VWS V14.01,2013-01-14 04:31:00,
2013-01-13 21:36:00,17.2,0.5,23.65,SW,221,0.0,0.0,47,0.00,,CLR,0.00,VWS V14.01,2013-01-14 04:36:00,
2013-01-13 21:41:00,16.9,0.2,23.65,SW,219,0.0,0.0,47,0.00,,CLR,0.00,VWS V14.01,2013-01-14 04:41:00,
2013-01-13 21:46:00,16.7,0.0,23.65,SW,218,0.0,0.0,47,0.00,,CLR,0.00,VWS V14.01,2013-01-14 04:46:00,
2013-01-13 21:51:00,16.5,-0.2,23.65,SW,216,0.0,0.0,47,0.00,,CLR,0.00,VWS V14.01,2013-01-14 04:51:00,
2013-01-13 21:56:00,16.0,-0.7,23.65,SW,215,0.0,0.0,47,0.00,,CLR,0.00,VWS V14.01,2013-01-14 04:56:00,
2013-01-13 22:00:00,15.8,-0.4,23.65,SW,215,0.0,0.0,48,0.00,,CLR,0.00,VWS V14.01,2013-01-14 05:00:00,
2013-01-13 22:03:00,15.6,-0.6,23.65,SW,215,0.0,0.0,48,0.00,,CLR,0.00,VWS V14.01,2013-01-14 05:03:00,
2013-01-13 22:08:00,15.4,-0.7,23.65,SW,215,0.0,0.0,48,0.00,,CLR,0.00,VWS V14.01,2013-01-14 05:08:00,
2013-01-13 22:13:00,15.3,-0.9,23.65,SW,215,0.0,0.0,48,0.00,,CLR,0.00,VWS V14.01,2013-01-14 05:13:00,
2013-01-13 22:18:00,14.9,-1.2,23.65,SSW,211,0.0,0.0,48,0.00,,CLR,0.00,VWS V14.01,2013-01-14 05:18:00,
2013-01-13 22:23:00,14.9,-0.8,23.65,SSW,211,0.0,0.0,49,0.00,,CLR,0.00,VWS V14.01,2013-01-14 05:23:00,
2013-01-13 22:28:00,14.5,-1.1,23.65,SSW,211,0.0,0.0,49,0.00,,CLR,0.00,VWS V14.01,2013-01-14 05:28:00,
2013-01-13 22:33:00,14.5,-1.1,23.65,SSW,211,0.0,0.0,49,0.00,,CLR,0.00,VWS V14.01,2013-01-14 05:33:00,
2013-01-13 22:38:00,14.4,-1.3,23.65,SSW,211,0.0,0.0,49,0.00,,CLR,0.00,VWS V14.01,2013-01-14 05:38:00,
2013-01-13 22:43:00,14.2,-1.5,23.68,SSW,211,0.0,0.0,49,0.00,,CLR,0.00,VWS V14.01,2013-01-14 05:43:00,
2013-01-13 22:48:00,13.8,-1.4,23.68,SSW,211,0.0,0.0,50,0.00,,CLR,0.00,VWS V14.01,2013-01-14 05:48:00,
2013-01-13 22:53:00,13.8,-1.4,23.68,SSW,211,0.0,0.0,50,0.00,,CLR,0.00,VWS V14.01,2013-01-14 05:53:00,
2013-01-13 22:58:00,13.6,-1.5,23.65,SSW,211,0.0,0.0,50,0.00,,CLR,0.00,VWS V14.01,2013-01-14 05:58:00,
2013-01-13 23:03:00,13.6,-1.5,23.65,SSW,211,0.0,0.0,50,0.00,,CLR,0.00,VWS V14.01,2013-01-14 06:03:00,
2013-01-13 23:08:00,13.6,-1.5,23.65,SSW,211,0.0,0.0,50,0.00,,CLR,0.00,VWS V14.01,2013-01-14 06:08:00,
2013-01-13 23:13:00,13.5,-1.7,23.65,ESE,120,0.0,0.0,50,0.00,,CLR,0.00,VWS V14.01,2013-01-14 06:13:00,
2013-01-13 23:18:00,13.5,-1.7,23.65,SSW,209,0.0,0.0,50,0.00,,CLR,0.00,VWS V14.01,2013-01-14 06:18:00,
2013-01-13 23:23:00,13.5,-1.7,23.65,SSW,204,0.0,0.0,50,0.00,,CLR,0.00,VWS V14.01,2013-01-14 06:23:00,
2013-01-13 23:28:00,13.3,-1.9,23.65,SSW,204,0.0,0.0,50,0.00,,CLR,0.00,VWS V14.01,2013-01-14 06:28:00,
2013-01-13 23:34:00,12.9,-2.2,23.65,SSW,204,0.0,0.0,50,0.00,,CLR,0.00,VWS V14.01,2013-01-14 06:34:00,
2013-01-13 23:41:00,12.7,-2.4,23.65,SSW,204,0.0,0.0,50,0.00,,CLR,0.00,VWS V14.01,2013-01-14 06:41:00,
2013-01-13 23:46:00,12.7,-2.4,23.65,SSW,204,0.0,0.0,50,0.00,,CLR,0.00,VWS V14.01,2013-01-14 06:46:00,
2013-01-13 23:51:00,12.7,-2.4,23.65,SSW,204,0.0,0.0,50,0.00,,CLR,0.00,VWS V14.01,2013-01-14 06:51:00,
2013-01-13 23:56:00,12.7,-2.4,23.65,SSW,204,0.0,0.0,50,0.00,,CLR,0.00,VWS V14.01,2013-01-14 06:56:00,